PEV106 LSZR-LOWW
Flight info
| Callsign | PEV106 |
|---|---|
| Flight time | 0h 48m |
| Altitude | 31000 |
| Route | KPT4R KPT DCT NINUR DCT BADVI L725 INPUL DCT NEMAL NEMAL2W |
| Aircraft | E170/M-VGDW/C |
Departure
| Time | 2026-05-05 17:12 |
|---|---|
| Airport | Sankt Gallen Altenrhein Airport (LSZR) |
Arrival
| Time | 2026-05-05 18:00 |
|---|---|
| Airport | Vienna International Airport (LOWW) |
| Time | Latitude | Longitude | Altitude | Speed | Heading |
|---|---|---|---|---|---|
| 2026-05-05 16:46 | 47.48719 | 9.55248 | 1306 ft | 0 kts | 5° |
| 2026-05-05 17:06 | 47.48723 | 9.55248 | 1313 ft | 3 kts | 5° |
| 2026-05-05 17:06 | 47.48739 | 9.55277 | 1313 ft | 6 kts | 86° |
| 2026-05-05 17:06 | 47.48731 | 9.55337 | 1313 ft | 6 kts | 139° |
| 2026-05-05 17:06 | 47.48682 | 9.55341 | 1313 ft | 0 kts | 186° |
| 2026-05-05 17:07 | 47.48663 | 9.55338 | 1313 ft | 7 kts | 187° |
| 2026-05-05 17:08 | 47.48598 | 9.55332 | 1315 ft | 9 kts | 159° |
| 2026-05-05 17:08 | 47.48571 | 9.55433 | 1316 ft | 15 kts | 98° |
| 2026-05-05 17:08 | 47.48549 | 9.55645 | 1315 ft | 24 kts | 98° |
| 2026-05-05 17:08 | 47.48524 | 9.55895 | 1316 ft | 25 kts | 98° |
| 2026-05-05 17:09 | 47.48495 | 9.56171 | 1313 ft | 29 kts | 98° |
| 2026-05-05 17:09 | 47.48464 | 9.56465 | 1312 ft | 26 kts | 99° |
| 2026-05-05 17:09 | 47.48436 | 9.56729 | 1312 ft | 24 kts | 98° |
| 2026-05-05 17:09 | 47.48413 | 9.56945 | 1313 ft | 14 kts | 99° |
| 2026-05-05 17:10 | 47.48417 | 9.57037 | 1314 ft | 4 kts | 97° |
| 2026-05-05 17:10 | 47.48406 | 9.57041 | 1315 ft | 2 kts | 230° |
| 2026-05-05 17:10 | 47.48406 | 9.56998 | 1314 ft | 0 kts | 279° |
| 2026-05-05 17:11 | 47.48406 | 9.56997 | 1314 ft | 1 kts | 279° |
| 2026-05-05 17:11 | 47.48439 | 9.56697 | 1312 ft | 69 kts | 278° |
| 2026-05-05 17:11 | 47.48551 | 9.55633 | 1318 ft | 137 kts | 279° |
| 2026-05-05 17:11 | 47.48705 | 9.54182 | 1887 ft | 148 kts | 279° |
| 2026-05-05 17:12 | 47.48883 | 9.52595 | 2513 ft | 162 kts | 285° |
| 2026-05-05 17:12 | 47.49547 | 9.51282 | 3378 ft | 167 kts | 327° |
| 2026-05-05 17:12 | 47.50681 | 9.51039 | 4418 ft | 172 kts | 13° |
| 2026-05-05 17:12 | 47.51730 | 9.52005 | 5217 ft | 189 kts | 41° |
| 2026-05-05 17:13 | 47.52693 | 9.53262 | 6274 ft | 173 kts | 42° |
| 2026-05-05 17:13 | 47.53562 | 9.54383 | 6942 ft | 163 kts | 41° |
| 2026-05-05 17:13 | 47.54366 | 9.55512 | 7649 ft | 157 kts | 44° |
| 2026-05-05 17:13 | 47.55194 | 9.56560 | 8251 ft | 156 kts | 41° |
| 2026-05-05 17:14 | 47.56035 | 9.57628 | 8712 ft | 164 kts | 41° |
| 2026-05-05 17:14 | 47.56956 | 9.58788 | 9046 ft | 183 kts | 41° |
| 2026-05-05 17:14 | 47.57970 | 9.60077 | 9435 ft | 201 kts | 41° |
| 2026-05-05 17:14 | 47.59070 | 9.61492 | 9860 ft | 215 kts | 45° |
| 2026-05-05 17:15 | 47.59999 | 9.63223 | 10465 ft | 217 kts | 63° |
| 2026-05-05 17:15 | 47.60594 | 9.65318 | 10979 ft | 230 kts | 73° |
| 2026-05-05 17:15 | 47.61121 | 9.67717 | 11304 ft | 262 kts | 76° |
| 2026-05-05 17:15 | 47.61649 | 9.70426 | 11636 ft | 292 kts | 76° |
| 2026-05-05 17:16 | 47.62238 | 9.73456 | 12061 ft | 319 kts | 76° |
| 2026-05-05 17:16 | 47.62901 | 9.76729 | 12679 ft | 338 kts | 75° |
| 2026-05-05 17:16 | 47.63598 | 9.80086 | 13723 ft | 344 kts | 75° |
| 2026-05-05 17:16 | 47.64307 | 9.83504 | 14752 ft | 348 kts | 75° |
| 2026-05-05 17:17 | 47.65005 | 9.86956 | 15808 ft | 352 kts | 76° |
| 2026-05-05 17:17 | 47.65696 | 9.90478 | 16734 ft | 360 kts | 76° |
| 2026-05-05 17:17 | 47.66383 | 9.94078 | 17623 ft | 366 kts | 76° |
| 2026-05-05 17:17 | 47.67090 | 9.97755 | 18494 ft | 373 kts | 75° |
| 2026-05-05 17:18 | 47.67843 | 10.01461 | 19374 ft | 377 kts | 75° |
| 2026-05-05 17:18 | 47.68612 | 10.05213 | 20249 ft | 382 kts | 75° |
| 2026-05-05 17:18 | 47.69385 | 10.09018 | 21030 ft | 388 kts | 75° |
| 2026-05-05 17:18 | 47.70163 | 10.12874 | 21813 ft | 391 kts | 75° |
| 2026-05-05 17:19 | 47.70680 | 10.15451 | 22294 ft | 395 kts | 75° |
| 2026-05-05 17:19 | 47.71039 | 10.17237 | 22624 ft | 397 kts | 75° |
| 2026-05-05 17:19 | 47.71833 | 10.21203 | 23336 ft | 402 kts | 75° |
| 2026-05-05 17:19 | 47.72632 | 10.25203 | 23992 ft | 405 kts | 75° |
| 2026-05-05 17:20 | 47.73395 | 10.29022 | 24586 ft | 409 kts | 75° |
| 2026-05-05 17:20 | 47.74203 | 10.33101 | 25197 ft | 412 kts | 77° |
| 2026-05-05 17:20 | 47.74600 | 10.37311 | 25752 ft | 413 kts | 89° |
| 2026-05-05 17:20 | 47.74640 | 10.41568 | 25987 ft | 426 kts | 93° |
| 2026-05-05 17:21 | 47.74569 | 10.46072 | 25906 ft | 444 kts | 94° |
| 2026-05-05 17:21 | 47.74488 | 10.50695 | 25823 ft | 449 kts | 94° |
| 2026-05-05 17:21 | 47.74429 | 10.55359 | 25828 ft | 452 kts | 93° |
| 2026-05-05 17:22 | 47.74337 | 10.64721 | 25825 ft | 454 kts | 93° |
| 2026-05-05 17:22 | 47.74290 | 10.69414 | 25845 ft | 453 kts | 93° |
| 2026-05-05 17:22 | 47.74245 | 10.74048 | 26515 ft | 449 kts | 93° |
| 2026-05-05 17:22 | 47.74198 | 10.78690 | 27128 ft | 449 kts | 93° |
| 2026-05-05 17:23 | 47.74148 | 10.83336 | 27746 ft | 449 kts | 93° |
| 2026-05-05 17:23 | 47.74096 | 10.87980 | 28345 ft | 450 kts | 93° |
| 2026-05-05 17:23 | 47.74041 | 10.92630 | 28964 ft | 450 kts | 93° |
| 2026-05-05 17:23 | 47.73984 | 10.97284 | 29598 ft | 451 kts | 93° |
| 2026-05-05 17:24 | 47.73924 | 11.01933 | 30185 ft | 450 kts | 93° |
| 2026-05-05 17:24 | 47.73861 | 11.06580 | 30739 ft | 449 kts | 94° |
| 2026-05-05 17:24 | 47.73796 | 11.11238 | 30925 ft | 457 kts | 94° |
| 2026-05-05 17:24 | 47.73724 | 11.16012 | 30914 ft | 468 kts | 94° |
| 2026-05-05 17:25 | 47.73649 | 11.20899 | 30845 ft | 475 kts | 94° |
| 2026-05-05 17:25 | 47.73531 | 11.30753 | 30832 ft | 478 kts | 93° |
| 2026-05-05 17:26 | 47.73507 | 11.40639 | 30827 ft | 478 kts | 92° |
| 2026-05-05 17:26 | 47.73459 | 11.50460 | 30826 ft | 478 kts | 93° |
| 2026-05-05 17:27 | 47.73394 | 11.60341 | 30816 ft | 478 kts | 93° |
| 2026-05-05 17:27 | 47.73319 | 11.70237 | 30804 ft | 478 kts | 93° |
| 2026-05-05 17:28 | 47.73237 | 11.80123 | 30801 ft | 479 kts | 93° |
| 2026-05-05 17:28 | 47.73147 | 11.89995 | 30806 ft | 478 kts | 93° |
| 2026-05-05 17:29 | 47.73776 | 11.99847 | 30821 ft | 482 kts | 81° |
| 2026-05-05 17:29 | 47.75202 | 12.09579 | 30772 ft | 482 kts | 79° |
| 2026-05-05 17:30 | 47.76598 | 12.19329 | 30785 ft | 482 kts | 80° |
| 2026-05-05 17:30 | 47.77945 | 12.29014 | 30783 ft | 481 kts | 80° |
| 2026-05-05 17:31 | 47.79277 | 12.38765 | 30782 ft | 481 kts | 80° |
| 2026-05-05 17:31 | 47.80607 | 12.48539 | 30786 ft | 482 kts | 80° |
| 2026-05-05 17:32 | 47.81928 | 12.58317 | 30792 ft | 482 kts | 80° |
| 2026-05-05 17:32 | 47.83238 | 12.68132 | 30791 ft | 483 kts | 81° |
| 2026-05-05 17:33 | 47.84507 | 12.77955 | 30805 ft | 483 kts | 82° |
| 2026-05-05 17:33 | 47.85507 | 12.87833 | 30803 ft | 482 kts | 83° |
| 2026-05-05 17:34 | 47.86507 | 12.97703 | 30801 ft | 482 kts | 83° |
| 2026-05-05 17:34 | 47.87526 | 13.07575 | 30804 ft | 482 kts | 83° |
| 2026-05-05 17:35 | 47.88537 | 13.17449 | 30797 ft | 482 kts | 83° |
| 2026-05-05 17:35 | 47.89540 | 13.27320 | 30786 ft | 482 kts | 83° |
| 2026-05-05 17:36 | 47.90527 | 13.37129 | 30778 ft | 481 kts | 83° |
| 2026-05-05 17:36 | 47.91512 | 13.46997 | 30770 ft | 481 kts | 83° |
| 2026-05-05 17:37 | 47.91815 | 13.56896 | 30769 ft | 478 kts | 92° |
| 2026-05-05 17:37 | 47.91744 | 13.66779 | 30749 ft | 477 kts | 92° |
| 2026-05-05 17:38 | 47.91681 | 13.76677 | 30759 ft | 477 kts | 92° |
| 2026-05-05 17:38 | 47.91629 | 13.86562 | 30754 ft | 476 kts | 92° |
| 2026-05-05 17:39 | 47.91560 | 13.96442 | 30755 ft | 476 kts | 92° |
| 2026-05-05 17:39 | 47.91482 | 14.06319 | 30744 ft | 476 kts | 92° |
| 2026-05-05 17:40 | 47.91397 | 14.16184 | 30745 ft | 476 kts | 92° |
| 2026-05-05 17:40 | 47.91319 | 14.24395 | 30711 ft | 473 kts | 92° |
| 2026-05-05 17:40 | 47.91272 | 14.29213 | 30285 ft | 455 kts | 92° |
| 2026-05-05 17:41 | 47.91227 | 14.33831 | 29832 ft | 440 kts | 93° |
| 2026-05-05 17:41 | 47.91178 | 14.38345 | 29193 ft | 429 kts | 93° |
| 2026-05-05 17:41 | 47.91111 | 14.44146 | 28435 ft | 415 kts | 93° |
| 2026-05-05 17:41 | 47.91059 | 14.48441 | 27890 ft | 416 kts | 93° |
| 2026-05-05 17:42 | 47.91023 | 14.51363 | 27511 ft | 420 kts | 93° |
| 2026-05-05 17:42 | 47.90968 | 14.55735 | 26944 ft | 423 kts | 93° |
| 2026-05-05 17:42 | 47.90912 | 14.60098 | 26404 ft | 419 kts | 93° |
| 2026-05-05 17:42 | 47.90860 | 14.64432 | 25842 ft | 417 kts | 93° |
| 2026-05-05 17:43 | 47.90801 | 14.68736 | 25285 ft | 414 kts | 93° |
| 2026-05-05 17:43 | 47.90741 | 14.73016 | 24745 ft | 410 kts | 93° |
| 2026-05-05 17:43 | 47.90679 | 14.77250 | 24208 ft | 407 kts | 93° |
| 2026-05-05 17:43 | 47.90616 | 14.81454 | 23669 ft | 404 kts | 93° |
| 2026-05-05 17:44 | 47.90555 | 14.85575 | 23110 ft | 401 kts | 93° |
| 2026-05-05 17:44 | 47.90490 | 14.89769 | 22610 ft | 397 kts | 93° |
| 2026-05-05 17:44 | 47.90427 | 14.93814 | 22084 ft | 395 kts | 93° |
| 2026-05-05 17:44 | 47.90360 | 14.97904 | 21563 ft | 393 kts | 93° |
| 2026-05-05 17:45 | 47.90294 | 15.01956 | 21040 ft | 391 kts | 93° |
| 2026-05-05 17:45 | 47.90228 | 15.06001 | 20518 ft | 388 kts | 93° |
| 2026-05-05 17:45 | 47.90159 | 15.10005 | 20014 ft | 385 kts | 94° |
| 2026-05-05 17:45 | 47.90089 | 15.13982 | 19514 ft | 382 kts | 94° |
| 2026-05-05 17:46 | 47.90016 | 15.17935 | 18991 ft | 379 kts | 93° |
| 2026-05-05 17:46 | 47.89944 | 15.21842 | 18506 ft | 376 kts | 94° |
| 2026-05-05 17:46 | 47.90041 | 15.25717 | 18086 ft | 376 kts | 80° |
| 2026-05-05 17:46 | 47.90953 | 15.29358 | 17795 ft | 375 kts | 65° |
| 2026-05-05 17:47 | 47.92211 | 15.32759 | 17476 ft | 378 kts | 60° |
| 2026-05-05 17:47 | 47.93567 | 15.36110 | 17073 ft | 375 kts | 59° |
| 2026-05-05 17:47 | 47.94891 | 15.39452 | 16673 ft | 372 kts | 61° |
| 2026-05-05 17:47 | 47.96155 | 15.42801 | 16263 ft | 370 kts | 62° |
| 2026-05-05 17:48 | 47.97393 | 15.46151 | 15865 ft | 367 kts | 62° |
| 2026-05-05 17:48 | 47.98600 | 15.49432 | 15448 ft | 365 kts | 62° |
| 2026-05-05 17:48 | 47.99822 | 15.52751 | 15012 ft | 363 kts | 62° |
| 2026-05-05 17:48 | 48.01029 | 15.56034 | 14586 ft | 358 kts | 62° |
| 2026-05-05 17:49 | 48.02214 | 15.59261 | 14205 ft | 349 kts | 62° |
| 2026-05-05 17:49 | 48.03365 | 15.62394 | 13791 ft | 340 kts | 61° |
| 2026-05-05 17:49 | 48.04484 | 15.65456 | 13370 ft | 332 kts | 62° |
| 2026-05-05 17:49 | 48.05576 | 15.68456 | 12952 ft | 325 kts | 62° |
| 2026-05-05 17:50 | 48.06643 | 15.71398 | 12549 ft | 319 kts | 62° |
| 2026-05-05 17:50 | 48.07695 | 15.74297 | 12121 ft | 315 kts | 62° |
| 2026-05-05 17:50 | 48.08730 | 15.77158 | 11707 ft | 311 kts | 62° |
| 2026-05-05 17:50 | 48.09756 | 15.80005 | 11273 ft | 310 kts | 62° |
| 2026-05-05 17:51 | 48.10775 | 15.82834 | 10811 ft | 308 kts | 62° |
| 2026-05-05 17:51 | 48.11788 | 15.85653 | 10334 ft | 305 kts | 62° |
| 2026-05-05 17:51 | 48.12781 | 15.88419 | 9868 ft | 300 kts | 62° |
| 2026-05-05 17:51 | 48.13762 | 15.91158 | 9384 ft | 296 kts | 62° |
| 2026-05-05 17:52 | 48.14728 | 15.93863 | 8887 ft | 293 kts | 62° |
| 2026-05-05 17:52 | 48.15685 | 15.96557 | 8405 ft | 292 kts | 63° |
| 2026-05-05 17:52 | 48.16621 | 15.99204 | 7931 ft | 291 kts | 63° |
| 2026-05-05 17:52 | 48.17567 | 16.01874 | 7469 ft | 289 kts | 63° |
| 2026-05-05 17:53 | 48.18503 | 16.04528 | 7008 ft | 287 kts | 63° |
| 2026-05-05 17:53 | 48.19432 | 16.07165 | 6555 ft | 285 kts | 63° |
| 2026-05-05 17:53 | 48.20354 | 16.09786 | 6118 ft | 284 kts | 63° |
| 2026-05-05 17:53 | 48.21271 | 16.12397 | 5646 ft | 284 kts | 63° |
| 2026-05-05 17:54 | 48.22193 | 16.15028 | 5190 ft | 286 kts | 63° |
| 2026-05-05 17:54 | 48.23060 | 16.17715 | 5056 ft | 282 kts | 74° |
| 2026-05-05 17:54 | 48.23019 | 16.20528 | 5677 ft | 266 kts | 113° |
| 2026-05-05 17:54 | 48.22108 | 16.23018 | 6402 ft | 276 kts | 124° |
| 2026-05-05 17:55 | 48.21168 | 16.25467 | 5525 ft | 281 kts | 118° |
| 2026-05-05 17:55 | 48.20399 | 16.28235 | 4535 ft | 280 kts | 116° |
| 2026-05-05 17:55 | 48.19617 | 16.30685 | 4002 ft | 241 kts | 123° |
| 2026-05-05 17:55 | 48.18908 | 16.32714 | 3674 ft | 200 kts | 123° |
| 2026-05-05 17:56 | 48.18376 | 16.34452 | 3420 ft | 166 kts | 124° |
| 2026-05-05 17:56 | 48.17922 | 16.35863 | 3201 ft | 137 kts | 127° |
| 2026-05-05 17:56 | 48.17520 | 16.37088 | 3026 ft | 129 kts | 127° |
| 2026-05-05 17:56 | 48.17132 | 16.38304 | 2851 ft | 131 kts | 126° |
| 2026-05-05 17:57 | 48.16730 | 16.39551 | 2652 ft | 135 kts | 126° |
| 2026-05-05 17:57 | 48.16319 | 16.40830 | 2480 ft | 137 kts | 126° |
| 2026-05-05 17:57 | 48.15929 | 16.42104 | 2333 ft | 135 kts | 125° |
| 2026-05-05 17:57 | 48.15512 | 16.43399 | 2099 ft | 136 kts | 125° |
| 2026-05-05 17:58 | 48.15128 | 16.44639 | 1914 ft | 131 kts | 124° |
| 2026-05-05 17:58 | 48.14737 | 16.45856 | 1741 ft | 129 kts | 126° |
| 2026-05-05 17:58 | 48.14342 | 16.47067 | 1585 ft | 130 kts | 123° |
| 2026-05-05 17:58 | 48.13972 | 16.48303 | 1374 ft | 128 kts | 124° |
| 2026-05-05 17:59 | 48.13578 | 16.49476 | 1189 ft | 123 kts | 125° |
| 2026-05-05 17:59 | 48.13200 | 16.50603 | 1010 ft | 118 kts | 126° |
| 2026-05-05 17:59 | 48.12838 | 16.51708 | 844 ft | 121 kts | 125° |
| 2026-05-05 17:59 | 48.12442 | 16.52873 | 703 ft | 131 kts | 124° |
| 2026-05-05 18:00 | 48.12039 | 16.54099 | 589 ft | 126 kts | 123° |
| 2026-05-05 18:00 | 48.11701 | 16.55115 | 588 ft | 90 kts | 115° |
| 2026-05-05 18:00 | 48.11481 | 16.55791 | 601 ft | 58 kts | 117° |
| 2026-05-05 18:00 | 48.11331 | 16.56262 | 597 ft | 38 kts | 112° |
| 2026-05-05 18:01 | 48.11293 | 16.56554 | 601 ft | 25 kts | 90° |
| 2026-05-05 18:01 | 48.11309 | 16.56751 | 600 ft | 10 kts | 45° |
| 2026-05-05 18:01 | 48.11374 | 16.56783 | 600 ft | 7 kts | 318° |
| 2026-05-05 18:01 | 48.11401 | 16.56689 | 599 ft | 13 kts | 297° |
| 2026-05-05 18:02 | 48.11442 | 16.56562 | 597 ft | 15 kts | 296° |
| 2026-05-05 18:02 | 48.11496 | 16.56394 | 596 ft | 20 kts | 296° |
| 2026-05-05 18:02 | 48.11557 | 16.56208 | 599 ft | 21 kts | 296° |
| 2026-05-05 18:02 | 48.11626 | 16.55999 | 601 ft | 24 kts | 296° |
| 2026-05-05 18:03 | 48.11692 | 16.55798 | 598 ft | 13 kts | 311° |
| 2026-05-05 18:03 | 48.11770 | 16.55809 | 597 ft | 13 kts | 26° |
| 2026-05-05 18:03 | 48.11867 | 16.55880 | 594 ft | 16 kts | 25° |
| 2026-05-05 18:03 | 48.11939 | 16.55926 | 591 ft | 6 kts | 0° |
| 2026-05-05 18:04 | 48.11957 | 16.55874 | 591 ft | 7 kts | 286° |
| 2026-05-05 18:04 | 48.11967 | 16.55844 | 590 ft | 1 kts | 300° |
| 2026-05-05 18:04 | 48.11970 | 16.55837 | 590 ft | 0 kts | 301° |
| 2026-05-05 18:08 | 48.11969 | 16.55837 | 590 ft | 0 kts | 301° |
| 2026-05-05 18:10 | 48.11969 | 16.55838 | 590 ft | 0 kts | 301° |